createdAt,value
2022-10-08T00:01:57.950Z,37.00
2022-10-08T00:05:00.007Z,33.50
2022-10-08T00:08:02.295Z,35.25
2022-10-08T00:11:07.240Z,36.25
2022-10-08T00:14:09.661Z,33.25
2022-10-08T00:17:11.740Z,31.25
2022-10-08T00:20:14.140Z,30.50
2022-10-08T00:23:16.959Z,36.25
2022-10-08T00:26:23.730Z,37.50
2022-10-08T00:29:25.737Z,33.25
2022-10-08T00:32:28.058Z,24.75
2022-10-08T00:35:30.092Z,35.75
2022-10-08T00:38:32.795Z,32.00
2022-10-08T00:41:38.716Z,35.25
2022-10-08T00:44:47.332Z,34.50
2022-10-08T00:47:49.634Z,35.75
2022-10-08T00:50:52.455Z,37.25
2022-10-08T00:53:54.676Z,28.75
2022-10-08T00:56:56.927Z,33.25
2022-10-08T00:59:58.989Z,38.25
2022-10-08T01:03:03.254Z,37.75
2022-10-08T01:06:28.410Z,32.75
2022-10-08T01:09:46.070Z,24.50
2022-10-08T01:12:57.228Z,38.25
2022-10-08T01:16:28.544Z,36.25
2022-10-08T01:20:01.598Z,35.50
2022-10-08T01:23:22.329Z,41.00
2022-10-08T01:26:49.926Z,37.00
2022-10-08T01:29:52.847Z,26.75
2022-10-08T01:33:00.964Z,43.50
2022-10-08T01:36:05.405Z,39.00
2022-10-08T01:39:12.400Z,36.50
2022-10-08T01:42:19.431Z,43.25
2022-10-08T01:45:45.044Z,42.00
2022-10-08T01:49:26.728Z,43.50
2022-10-08T01:52:33.022Z,36.75
2022-10-08T01:55:38.698Z,42.25
2022-10-08T01:59:07.139Z,39.75
2022-10-08T02:02:15.206Z,40.75
2022-10-08T02:05:17.417Z,33.50
2022-10-08T02:08:20.213Z,38.00
2022-10-08T02:11:22.174Z,37.00
2022-10-08T02:14:25.978Z,39.00
2022-10-08T02:18:07.011Z,30.75
2022-10-08T02:21:19.587Z,38.00
2022-10-08T02:24:28.612Z,32.75
2022-10-08T02:27:40.472Z,42.00
2022-10-08T02:31:03.309Z,35.00
2022-10-08T02:34:20.770Z,36.75
2022-10-08T02:37:27.249Z,37.25
2022-10-08T02:40:30.768Z,37.50
2022-10-08T02:43:35.824Z,31.75
2022-10-08T02:46:40.725Z,36.00
2022-10-08T02:49:47.215Z,34.00
2022-10-08T02:52:51.193Z,39.00
2022-10-08T02:56:13.932Z,43.25
2022-10-08T02:59:18.114Z,39.50
2022-10-08T03:02:30.045Z,34.25
2022-10-08T03:05:32.303Z,36.50
2022-10-08T03:08:41.155Z,36.25
2022-10-08T03:11:44.326Z,33.00
2022-10-08T03:14:48.291Z,38.25
2022-10-08T03:17:50.591Z,38.00
2022-10-08T03:20:55.959Z,38.00
2022-10-08T03:23:58.260Z,37.75
2022-10-08T03:27:00.254Z,34.00
2022-10-08T03:30:03.595Z,32.75
2022-10-08T03:33:05.734Z,36.25
2022-10-08T03:36:08.043Z,33.25
2022-10-08T03:39:11.357Z,29.50
2022-10-08T03:42:13.677Z,38.25
2022-10-08T03:45:15.826Z,35.50
2022-10-08T03:48:19.527Z,35.25
2022-10-08T03:51:21.687Z,34.50
2022-10-08T03:54:23.989Z,31.50
2022-10-08T03:57:26.042Z,41.75
2022-10-08T04:00:28.269Z,34.75
2022-10-08T04:03:31.023Z,34.00
2022-10-08T04:06:33.246Z,32.50
2022-10-08T04:09:35.468Z,41.75
2022-10-08T04:12:38.005Z,41.00
2022-10-08T04:15:40.089Z,31.50
2022-10-08T04:18:42.998Z,43.00
2022-10-08T04:21:45.068Z,37.75
2022-10-08T04:24:47.283Z,35.50
2022-10-08T04:27:50.033Z,39.25
2022-10-08T04:31:10.526Z,41.75
2022-10-08T04:34:12.718Z,44.25
2022-10-08T04:37:14.978Z,42.00
2022-10-08T04:40:17.026Z,38.25
2022-10-08T04:43:19.183Z,42.00
2022-10-08T04:46:22.428Z,36.50
2022-10-08T04:49:25.868Z,36.00
2022-10-08T04:52:27.877Z,37.50
2022-10-08T04:55:30.290Z,41.25
2022-10-08T04:58:32.306Z,38.50
2022-10-08T05:01:34.740Z,52.00
2022-10-08T05:04:37.902Z,42.25
2022-10-08T05:07:40.314Z,48.75
2022-10-08T05:10:48.351Z,44.25
2022-10-08T05:13:52.558Z,39.25
2022-10-08T05:16:54.546Z,38.50
2022-10-08T05:19:56.875Z,35.50
2022-10-08T05:22:58.908Z,43.75
2022-10-08T05:26:02.489Z,46.50
2022-10-08T05:29:05.265Z,39.25
2022-10-08T05:32:07.644Z,42.75
2022-10-08T05:35:09.772Z,37.50
2022-10-08T05:38:12.021Z,36.75
2022-10-08T05:41:16.955Z,39.25
2022-10-08T05:44:19.250Z,36.50
2022-10-08T05:47:21.592Z,41.75
2022-10-08T05:50:24.212Z,46.00
2022-10-08T05:53:26.250Z,41.25
2022-10-08T05:56:29.240Z,45.75
2022-10-08T05:59:31.575Z,42.00
2022-10-08T06:02:34.112Z,42.75
2022-10-08T06:05:36.251Z,44.50
2022-10-08T06:08:38.590Z,45.75
2022-10-08T06:11:41.062Z,42.75
2022-10-08T06:14:43.251Z,41.50
2022-10-08T06:17:45.266Z,34.75
2022-10-08T06:20:47.505Z,46.25
2022-10-08T06:23:54.366Z,42.00
2022-10-08T06:26:56.645Z,44.50
2022-10-08T06:29:58.684Z,47.00
2022-10-08T06:33:00.910Z,47.00
2022-10-08T06:36:29.206Z,48.00
2022-10-08T06:39:31.807Z,41.00
2022-10-08T06:42:33.816Z,39.75
2022-10-08T06:45:40.075Z,45.25
2022-10-08T06:48:42.209Z,47.00
2022-10-08T06:51:44.488Z,38.75
2022-10-08T06:54:46.486Z,41.00
2022-10-08T06:57:48.949Z,49.00
2022-10-08T07:01:04.663Z,50.25
2022-10-08T07:04:07.382Z,51.50
2022-10-08T07:07:09.742Z,46.75
2022-10-08T07:10:12.266Z,43.50
2022-10-08T07:13:15.658Z,41.25
2022-10-08T07:16:21.553Z,45.00
2022-10-08T07:19:24.469Z,43.00
2022-10-08T07:22:26.671Z,41.00
2022-10-08T07:25:28.883Z,44.50
2022-10-08T07:28:34.815Z,42.75
2022-10-08T07:31:38.159Z,39.75
2022-10-08T07:34:40.772Z,34.00
2022-10-08T07:37:43.037Z,39.50
2022-10-08T07:40:47.005Z,44.25
2022-10-08T07:43:54.055Z,42.50
2022-10-08T07:46:56.462Z,41.75
2022-10-08T07:49:58.683Z,41.00
2022-10-08T07:53:01.194Z,50.50
2022-10-08T07:56:04.611Z,47.50
2022-10-08T07:59:08.039Z,45.25
2022-10-08T08:02:10.332Z,48.00
2022-10-08T08:05:12.752Z,40.50
2022-10-08T08:08:14.997Z,45.25
2022-10-08T08:11:19.904Z,46.50
2022-10-08T08:14:22.133Z,44.25
2022-10-08T08:17:24.574Z,51.00
2022-10-08T08:20:26.593Z,46.00
2022-10-08T08:23:34.173Z,39.75
2022-10-08T08:26:38.931Z,40.25
2022-10-08T08:29:41.288Z,44.00
2022-10-08T08:32:43.396Z,39.00
2022-10-08T08:35:53.165Z,35.25
2022-10-08T08:38:55.567Z,44.75
2022-10-08T08:42:07.306Z,35.00
2022-10-08T08:45:41.449Z,32.25
2022-10-08T08:48:39.723Z,38.25
2022-10-08T08:51:43.479Z,37.75
2022-10-08T08:54:47.994Z,34.75
2022-10-08T08:57:57.569Z,38.75
2022-10-08T09:01:25.088Z,28.75
2022-10-08T09:04:44.287Z,34.50
2022-10-08T09:07:55.694Z,35.75
2022-10-08T09:10:59.810Z,34.50
2022-10-08T09:14:26.964Z,37.00
2022-10-08T09:17:37.280Z,31.75
2022-10-08T09:20:40.484Z,33.50
2022-10-08T09:23:42.906Z,28.50
2022-10-08T09:26:45.955Z,32.25
2022-10-08T09:29:48.130Z,28.50
2022-10-08T09:32:55.134Z,32.50
2022-10-08T09:35:57.188Z,25.75
2022-10-08T09:39:00.028Z,30.00
2022-10-08T09:42:07.831Z,27.25
2022-10-08T09:45:40.547Z,27.00
2022-10-08T09:48:45.961Z,28.25
2022-10-08T09:51:49.960Z,28.00
2022-10-08T09:55:00.919Z,27.75
2022-10-08T09:58:04.332Z,20.25
2022-10-08T10:01:14.087Z,31.00
2022-10-08T10:04:34.855Z,27.00
2022-10-08T10:07:40.691Z,27.75
2022-10-08T10:10:48.620Z,28.25
2022-10-08T10:13:51.430Z,25.00
2022-10-08T10:17:02.003Z,26.00
2022-10-08T10:20:39.434Z,22.50
2022-10-08T10:23:48.760Z,31.50
2022-10-08T10:26:54.068Z,24.00
2022-10-08T10:30:18.908Z,25.25
2022-10-08T10:33:25.240Z,27.00
2022-10-08T10:36:31.833Z,27.50
2022-10-08T10:39:55.466Z,22.50
2022-10-08T10:43:04.708Z,23.25
2022-10-08T10:46:32.209Z,28.00
2022-10-08T10:49:38.252Z,23.00
2022-10-08T10:53:02.057Z,27.25
2022-10-08T10:56:07.229Z,28.75
2022-10-08T10:59:38.470Z,24.75
2022-10-08T11:02:46.445Z,32.50
2022-10-08T11:05:53.699Z,30.75
2022-10-08T11:09:35.367Z,29.25
2022-10-08T11:12:51.547Z,29.75
2022-10-08T11:15:59.888Z,36.00
2022-10-08T11:19:03.624Z,28.75
2022-10-08T11:22:23.590Z,38.25
2022-10-08T11:26:16.475Z,30.00
2022-10-08T11:29:58.086Z,31.50
2022-10-08T11:33:14.068Z,31.50
2022-10-08T11:37:02.989Z,34.00
2022-10-08T11:40:35.523Z,38.00
2022-10-08T11:43:50.485Z,33.75
2022-10-08T11:47:34.096Z,35.25
2022-10-08T11:50:41.216Z,31.50
2022-10-08T11:54:05.673Z,35.00
2022-10-08T11:57:13.584Z,31.00
2022-10-08T12:00:42.570Z,32.50
2022-10-08T12:04:05.266Z,33.75
2022-10-08T12:07:21.873Z,37.75
2022-10-08T12:10:26.382Z,37.50
2022-10-08T12:13:29.735Z,35.00
2022-10-08T12:16:57.104Z,32.75
2022-10-08T12:20:19.998Z,34.50
2022-10-08T12:23:22.332Z,42.25
2022-10-08T12:26:24.316Z,35.00
2022-10-08T12:29:28.421Z,36.25
2022-10-08T12:32:42.794Z,36.00
2022-10-08T12:35:57.742Z,34.25
2022-10-08T12:39:02.769Z,39.50
2022-10-08T12:42:15.189Z,33.75
2022-10-08T12:45:29.973Z,34.50
2022-10-08T12:48:56.919Z,30.25
2022-10-08T12:52:14.105Z,33.50
2022-10-08T12:55:19.382Z,35.25
2022-10-08T12:58:34.130Z,39.75
2022-10-08T13:01:36.480Z,36.50
2022-10-08T13:04:46.568Z,35.50
2022-10-08T13:07:49.720Z,35.75
2022-10-08T13:10:52.072Z,30.25
2022-10-08T13:13:54.353Z,31.25
2022-10-08T13:16:57.398Z,33.00
2022-10-08T13:20:05.699Z,35.25
2022-10-08T13:23:35.916Z,34.00
2022-10-08T13:26:57.662Z,30.50
2022-10-08T13:30:28.721Z,27.75
2022-10-08T13:33:31.122Z,27.00
2022-10-08T13:36:37.772Z,34.25
2022-10-08T13:39:42.420Z,30.25
2022-10-08T13:42:50.662Z,33.00
2022-10-08T13:45:53.222Z,34.50
2022-10-08T13:48:55.410Z,32.00
2022-10-08T13:51:58.954Z,30.25
2022-10-08T13:55:04.519Z,30.75
2022-10-08T13:58:07.162Z,31.00
2022-10-08T14:01:09.438Z,28.25
2022-10-08T14:04:12.201Z,24.25
2022-10-08T14:07:20.893Z,25.75
2022-10-08T14:10:23.738Z,30.25
2022-10-08T14:13:26.407Z,27.00
2022-10-08T14:16:28.890Z,31.25
2022-10-08T14:19:31.301Z,29.00
2022-10-08T14:22:38.741Z,30.50
2022-10-08T14:25:41.299Z,27.75
2022-10-08T14:28:44.206Z,30.50
2022-10-08T14:31:49.202Z,30.50
2022-10-08T14:34:52.239Z,32.00
2022-10-08T14:37:54.475Z,38.25
2022-10-08T14:40:56.836Z,34.50
2022-10-08T14:43:59.113Z,27.00
2022-10-08T14:47:01.360Z,31.00
2022-10-08T14:50:03.754Z,32.25
2022-10-08T14:53:06.162Z,31.50
2022-10-08T14:56:12.341Z,26.75
2022-10-08T14:59:15.625Z,27.75
2022-10-08T15:02:17.846Z,31.25
2022-10-08T15:05:20.292Z,29.50
2022-10-08T15:08:22.493Z,29.00
2022-10-08T15:11:25.073Z,29.75
2022-10-08T15:14:27.286Z,29.00
2022-10-08T15:17:29.747Z,31.25
2022-10-08T15:20:34.285Z,27.00
2022-10-08T15:23:36.662Z,28.00
2022-10-08T15:26:38.930Z,27.00
2022-10-08T15:29:41.553Z,34.50
2022-10-08T15:32:43.818Z,36.50
2022-10-08T15:35:46.203Z,32.50
2022-10-08T15:38:49.474Z,32.75
2022-10-08T15:41:53.198Z,38.25
2022-10-08T15:44:55.347Z,36.00
2022-10-08T15:47:57.711Z,29.25
2022-10-08T15:51:00.377Z,29.75
2022-10-08T15:54:03.290Z,34.50
2022-10-08T15:57:06.632Z,36.25
2022-10-08T16:00:09.572Z,40.25
2022-10-08T16:03:13.993Z,38.00
2022-10-08T16:06:19.069Z,36.75
2022-10-08T16:09:22.789Z,36.00
2022-10-08T16:12:25.372Z,34.00
2022-10-08T16:15:27.525Z,36.00
2022-10-08T16:18:29.848Z,39.00
2022-10-08T16:21:33.675Z,43.75
2022-10-08T16:24:36.076Z,34.25
2022-10-08T16:27:38.250Z,42.75
2022-10-08T16:30:40.559Z,47.75
2022-10-08T16:33:42.791Z,46.50
2022-10-08T16:36:48.221Z,42.75
2022-10-08T16:39:50.648Z,42.25
2022-10-08T16:42:56.119Z,45.50
2022-10-08T16:45:58.312Z,46.50
2022-10-08T16:49:10.896Z,37.50
2022-10-08T16:52:13.715Z,43.50
2022-10-08T16:55:16.104Z,49.75
2022-10-08T16:58:18.238Z,44.75
2022-10-08T17:01:21.203Z,49.25
2022-10-08T17:04:24.923Z,44.00
2022-10-08T17:07:27.164Z,45.50
2022-10-08T17:10:29.342Z,46.75
2022-10-08T17:13:31.744Z,43.75
2022-10-08T17:16:34.844Z,46.00
2022-10-08T17:19:38.178Z,40.50
2022-10-08T17:22:40.962Z,48.50
2022-10-08T17:25:43.337Z,52.00
2022-10-08T17:28:47.103Z,50.50
2022-10-08T17:31:49.721Z,52.50
2022-10-08T17:34:51.804Z,49.75
2022-10-08T17:37:54.399Z,59.75
2022-10-08T17:40:56.614Z,51.00
2022-10-08T17:44:01.530Z,53.00
2022-10-08T17:47:03.757Z,52.00
2022-10-08T17:50:06.276Z,49.50
2022-10-08T17:53:08.597Z,50.00
2022-10-08T17:56:13.034Z,45.75
2022-10-08T17:59:18.301Z,47.00
2022-10-08T18:02:21.060Z,47.75
2022-10-08T18:05:23.385Z,46.75
2022-10-08T18:08:26.413Z,47.50
2022-10-08T18:11:31.347Z,44.75
2022-10-08T18:14:33.958Z,43.25
2022-10-08T18:17:40.494Z,43.50
2022-10-08T18:20:53.139Z,45.25
2022-10-08T18:23:55.425Z,46.50
2022-10-08T18:26:59.547Z,46.75
2022-10-08T18:30:01.986Z,42.75
2022-10-08T18:33:06.286Z,44.75
2022-10-08T18:36:10.925Z,37.50
2022-10-08T18:39:15.730Z,46.75
2022-10-08T18:42:18.639Z,44.00
2022-10-08T18:45:22.711Z,27.25
2022-10-08T18:48:26.120Z,36.00
2022-10-08T18:51:29.247Z,36.75
2022-10-08T18:54:31.640Z,39.75
2022-10-08T18:57:34.121Z,41.00
2022-10-08T19:00:37.820Z,39.25
2022-10-08T19:03:40.366Z,33.25
2022-10-08T19:06:44.300Z,36.00
2022-10-08T19:09:46.742Z,40.00
2022-10-08T19:12:49.377Z,36.25
2022-10-08T19:15:52.309Z,39.50
2022-10-08T19:18:57.805Z,37.00
2022-10-08T19:22:01.506Z,37.00
2022-10-08T19:25:03.838Z,31.00
2022-10-08T19:28:06.146Z,39.75
2022-10-08T19:31:17.339Z,34.50
2022-10-08T19:34:22.398Z,41.25
2022-10-08T19:37:24.665Z,37.50
2022-10-08T19:40:27.938Z,32.75
2022-10-08T19:43:31.111Z,39.25
2022-10-08T19:46:33.685Z,35.25
2022-10-08T19:49:35.907Z,32.75
2022-10-08T19:52:38.466Z,35.75
2022-10-08T19:55:41.211Z,36.00
2022-10-08T19:58:48.933Z,39.00
2022-10-08T20:01:51.987Z,37.75
2022-10-08T20:04:54.611Z,33.75
2022-10-08T20:07:59.587Z,35.75
2022-10-08T20:11:07.514Z,36.00
2022-10-08T20:14:10.654Z,37.75
2022-10-08T20:17:14.316Z,36.25
2022-10-08T20:20:32.267Z,41.50
2022-10-08T20:23:37.601Z,32.25
2022-10-08T20:26:41.468Z,37.75
2022-10-08T20:29:43.920Z,34.75
2022-10-08T20:32:46.419Z,26.50
2022-10-08T20:35:49.290Z,36.50
2022-10-08T20:38:58.155Z,27.00
2022-10-08T20:42:00.453Z,40.00
2022-10-08T20:45:02.597Z,32.25
2022-10-08T20:48:05.593Z,33.00
2022-10-08T20:51:13.701Z,31.50
2022-10-08T20:54:17.203Z,34.00
2022-10-08T20:57:19.350Z,30.25
2022-10-08T21:00:21.563Z,33.75
2022-10-08T21:03:23.884Z,35.25
2022-10-08T21:06:31.444Z,30.50
2022-10-08T21:09:33.617Z,37.50
2022-10-08T21:12:36.048Z,31.75
2022-10-08T21:15:38.067Z,36.00
2022-10-08T21:18:40.924Z,37.75
2022-10-08T21:21:42.916Z,33.00
2022-10-08T21:24:45.283Z,31.00
2022-10-08T21:27:47.562Z,29.00
2022-10-08T21:30:53.860Z,28.75
2022-10-08T21:33:58.278Z,27.50
2022-10-08T21:37:00.862Z,30.50
2022-10-08T21:40:03.841Z,25.25
2022-10-08T21:43:06.093Z,27.75
2022-10-08T21:46:10.361Z,31.00
2022-10-08T21:49:20.073Z,29.25
2022-10-08T21:52:22.151Z,25.00
2022-10-08T21:55:24.425Z,26.50
2022-10-08T21:58:27.983Z,22.75
2022-10-08T22:01:46.347Z,22.75
2022-10-08T22:04:48.697Z,16.25
2022-10-08T22:07:50.914Z,14.00
2022-10-08T22:10:53.913Z,13.50
2022-10-08T22:13:56.139Z,15.50
2022-10-08T22:16:58.231Z,16.25
2022-10-08T22:20:00.481Z,14.50
2022-10-08T22:23:02.484Z,14.25
2022-10-08T22:26:07.723Z,17.50
2022-10-08T22:29:10.258Z,15.75
2022-10-08T22:32:12.833Z,15.00
2022-10-08T22:35:14.947Z,17.75
2022-10-08T22:38:17.245Z,12.25
2022-10-08T22:41:27.753Z,13.50
2022-10-08T22:44:30.137Z,15.50
2022-10-08T22:47:32.139Z,12.25
2022-10-08T22:50:35.870Z,11.75
2022-10-08T22:53:38.206Z,13.00
2022-10-08T22:56:40.612Z,13.00
2022-10-08T22:59:42.594Z,12.50
2022-10-08T23:02:44.855Z,10.50
2022-10-08T23:05:46.850Z,10.75
2022-10-08T23:08:53.545Z,9.00
2022-10-08T23:11:55.606Z,11.50
2022-10-08T23:14:57.911Z,13.75
2022-10-08T23:17:59.933Z,11.25
2022-10-08T23:21:12.279Z,11.25
2022-10-08T23:24:14.404Z,4.50
2022-10-08T23:27:16.676Z,16.25
2022-10-08T23:30:41.716Z,15.00
2022-10-08T23:33:43.668Z,15.50
2022-10-08T23:36:45.727Z,14.00
2022-10-08T23:39:48.067Z,15.25
2022-10-08T23:42:50.548Z,19.75
2022-10-08T23:45:53.466Z,19.75
2022-10-08T23:48:56.315Z,20.25
2022-10-08T23:51:58.529Z,20.25
2022-10-08T23:55:00.529Z,16.50
2022-10-08T23:58:02.752Z,24.50
